首页
METAR-TAF:

METAR-TAF

机场 :

Laurinburg-Maxton Airport

Maxton, 北卡罗来纳州, 美国

纬度: 34-47-29N, 经度: 079-22-05W, 海拔: 67米

当前天气观测

该预报发布于31分钟前的19:28 UTC
静风
温度 16°C
湿度 68%
气压 1020 hPa
能見度: 16.1公里
阴天层高于1700英尺

METAR: KMEB 181928Z AUTO 00000KT 10SM OVC017 16/10 A3013 RMK AO2 T01560100 $

时间: 14:59 (19:59 UTC)


TAF: 丢失

超过4000个机场的气象观测和天气预报(METAR&TAF报告)。

可查询的气象台以黄色和红色小点在地图上表示。

将鼠标移到小点上方,可查看气象台名称。

然后点击查看天气观测和预报。

如需切换地图:点击带黑十字的绿色按钮放大地图;点击带横线的绿色按钮缩小地图;或者点击绿色箭头查看邻近地区的地图。


METAR-TAF: